Time;durP1;ratioP1;P1;durP2;ratioP2;P2;SDS_P1;SDS_P2;PMS_P1;PMS_P2;Temp;Humidity;BMP_temperature;BMP_pressure;BME280_temperature;BME280_humidity;BME280_pressure;Samples;Min_cycle;Max_cycle;Signal;HPM_P1;HPM_P2
2023/10/24 00:01:17;;;;;;;15.13;7.28;;;;;;;11.23;100.00;100716.41;10575556;27;20048;-64
2023/10/24 00:06:39;;;;;;;10.27;7.40;;;;;;;11.23;100.00;100696.53;10562580;27;20043;-64
2023/10/24 00:12:03;;;;;;;12.73;7.82;;;;;;;11.25;100.00;100688.72;10574664;27;20040;-63
2023/10/24 00:17:26;;;;;;;11.95;7.38;;;;;;;11.26;100.00;100674.88;10568046;27;20400;-63
2023/10/24 00:22:48;;;;;;;13.93;7.75;;;;;;;11.29;100.00;100664.41;10553120;27;20044;-63
2023/10/24 00:28:10;;;;;;;15.35;8.00;;;;;;;11.26;100.00;100643.78;10567720;27;20062;-64
2023/10/24 00:33:32;;;;;;;14.70;7.43;;;;;;;11.28;100.00;100636.81;10555619;27;20687;-63
2023/10/24 00:38:54;;;;;;;12.70;7.90;;;;;;;11.30;100.00;100633.25;10567571;27;20063;-63
2023/10/24 00:44:16;;;;;;;13.13;7.78;;;;;;;11.33;100.00;100624.53;10560401;27;20050;-63
2023/10/24 00:49:38;;;;;;;14.55;8.05;;;;;;;11.31;100.00;100603.03;10565462;27;20360;-63
2023/10/24 00:55:00;;;;;;;11.90;8.15;;;;;;;11.38;100.00;100594.97;10554678;27;20044;-63
2023/10/24 01:00:26;;;;;;;12.38;9.10;;;;;;;11.41;100.00;100591.44;10553889;27;20035;-63
2023/10/24 01:05:49;;;;;;;12.00;9.00;;;;;;;11.44;100.00;100575.78;10555169;27;20507;-63
2023/10/24 01:11:11;;;;;;;12.80;9.07;;;;;;;11.52;100.00;100589.28;10570094;27;20180;-64
2023/10/24 01:16:34;;;;;;;15.63;9.10;;;;;;;11.53;100.00;100580.59;10546535;27;20036;-63
2023/10/24 01:21:56;;;;;;;11.85;8.48;;;;;;;11.56;100.00;100585.66;10563177;27;20047;-64
2023/10/24 01:27:19;;;;;;;23.85;9.55;;;;;;;11.56;100.00;100580.47;10557789;27;20089;-64
2023/10/24 01:32:41;;;;;;;13.27;8.65;;;;;;;11.57;100.00;100566.63;10553619;27;20127;-64
2023/10/24 01:38:03;;;;;;;14.07;8.82;;;;;;;11.58;100.00;100568.31;10562190;27;20038;-63
2023/10/24 01:43:25;;;;;;;14.18;8.43;;;;;;;11.58;100.00;100563.97;10565355;27;20053;-64
2023/10/24 01:48:47;;;;;;;15.75;9.48;;;;;;;11.56;100.00;100549.38;10556245;27;20062;-63
2023/10/24 01:54:09;;;;;;;13.05;9.30;;;;;;;11.56;100.00;100544.19;10552768;27;20048;-63
2023/10/24 01:59:31;;;;;;;14.85;9.70;;;;;;;11.56;100.00;100539.88;10556507;27;20079;-63
2023/10/24 02:04:53;;;;;;;15.00;8.98;;;;;;;11.55;100.00;100526.97;10559370;27;20044;-63
2023/10/24 02:10:19;;;;;;;15.02;9.27;;;;;;;11.56;100.00;100523.47;10563222;27;20046;-63
2023/10/24 02:15:41;;;;;;;15.88;10.23;;;;;;;11.55;100.00;100511.44;10558329;27;20047;-63
2023/10/24 02:21:07;;;;;;;13.90;9.13;;;;;;;11.54;100.00;100494.16;10557907;27;20412;-63
2023/10/24 02:26:29;;;;;;;12.98;9.25;;;;;;;11.54;100.00;100496.75;10556170;27;20076;-63
2023/10/24 02:31:51;;;;;;;18.75;9.07;;;;;;;11.57;100.00;100500.09;10554898;27;20051;-63
2023/10/24 02:37:13;;;;;;;17.20;10.00;;;;;;;11.59;100.00;100481.91;10556698;27;20040;-63
2023/10/24 02:42:35;;;;;;;16.45;9.13;;;;;;;11.57;100.00;100462.97;10559184;27;20670;-63
2023/10/24 02:47:57;;;;;;;11.32;8.68;;;;;;;11.63;100.00;100442.00;10562391;27;20044;-63
2023/10/24 02:53:19;;;;;;;15.82;9.63;;;;;;;11.63;100.00;100431.63;10552635;27;20883;-63
2023/10/24 02:58:43;;;;;;;14.75;9.38;;;;;;;11.66;100.00;100428.94;10548704;28;20044;-63
2023/10/24 03:04:05;;;;;;;16.95;9.77;;;;;;;11.66;100.00;100426.34;10562690;28;20054;-63
2023/10/24 03:09:27;;;;;;;11.75;9.25;;;;;;;11.69;100.00;100416.69;10561309;28;20129;-63
2023/10/24 03:14:49;;;;;;;12.95;9.73;;;;;;;11.69;100.00;100415.84;10558504;28;20044;-63
2023/10/24 03:20:11;;;;;;;14.27;9.30;;;;;;;11.69;100.00;100405.47;10563685;28;20048;-63
2023/10/24 03:25:33;;;;;;;15.32;9.52;;;;;;;11.68;100.00;100396.03;10547288;28;20055;-63
2023/10/24 03:31:05;;;;;;;16.95;9.27;;;;;;;11.73;100.00;100404.47;10555727;28;20683;-63
2023/10/24 03:36:27;;;;;;;19.30;9.65;;;;;;;11.75;100.00;100400.06;10563005;28;20051;-63
2023/10/24 03:41:50;;;;;;;15.25;10.18;;;;;;;11.76;100.00;100406.91;10568888;28;20055;-63
2023/10/24 03:47:11;;;;;;;25.38;9.68;;;;;;;11.75;100.00;100400.91;10553010;28;20395;-63
2023/10/24 03:52:34;;;;;;;14.80;10.02;;;;;;;11.80;100.00;100392.91;10556687;28;20051;-63
2023/10/24 03:57:56;;;;;;;18.77;10.85;;;;;;;11.81;100.00;100371.28;10553589;28;20059;-63
2023/10/24 04:03:19;;;;;;;20.60;10.38;;;;;;;11.86;100.00;100383.16;10560578;28;20058;-63
2023/10/24 04:08:44;;;;;;;15.38;10.32;;;;;;;11.89;100.00;100392.53;10557893;28;20636;-63
2023/10/24 04:14:06;;;;;;;13.98;10.00;;;;;;;11.91;100.00;100385.53;10561383;27;20108;-63
2023/10/24 04:19:29;;;;;;;16.38;11.13;;;;;;;11.91;100.00;100385.53;10562096;27;20129;-63
2023/10/24 04:24:51;;;;;;;18.23;11.02;;;;;;;11.93;100.00;100378.53;10562338;27;20050;-64
2023/10/24 04:30:13;;;;;;;17.67;11.45;;;;;;;11.92;100.00;100387.22;10566377;27;20044;-63
2023/10/24 04:35:43;;;;;;;17.38;11.30;;;;;;;11.95;100.00;100372.38;10579773;27;20613;-63
2023/10/24 04:41:05;;;;;;;14.90;11.40;;;;;;;11.97;100.00;100374.91;10562464;27;20676;-63
2023/10/24 04:46:29;;;;;;;15.50;12.00;;;;;;;11.97;100.00;100364.53;10564507;27;20515;-63
2023/10/24 04:51:52;;;;;;;18.10;11.20;;;;;;;11.99;100.00;100365.31;10569971;27;20557;-63
2023/10/24 04:57:14;;;;;;;20.88;12.18;;;;;;;12.01;100.00;100355.72;10560431;27;20047;-63
2023/10/24 05:02:36;;;;;;;19.00;11.63;;;;;;;12.04;100.00;100365.94;10569505;27;20053;-63
2023/10/24 05:07:58;;;;;;;16.67;12.50;;;;;;;12.05;100.00;100363.28;10557336;27;20044;-63
2023/10/24 05:13:20;;;;;;;18.70;12.85;;;;;;;12.08;100.00;100326.88;10564808;27;20088;-63
2023/10/24 05:18:42;;;;;;;20.70;12.75;;;;;;;12.08;100.00;100331.19;10567367;27;20051;-63
2023/10/24 05:24:04;;;;;;;25.83;13.40;;;;;;;12.10;100.00;100337.97;10549990;27;20067;-63
2023/10/24 05:29:26;;;;;;;21.63;12.93;;;;;;;12.09;100.00;100333.72;10555812;27;20668;-64
2023/10/24 05:34:48;;;;;;;20.20;12.43;;;;;;;12.13;100.00;100324.06;10566395;27;20530;-63
2023/10/24 05:40:10;;;;;;;21.38;12.65;;;;;;;12.14;100.00;100338.72;10563998;27;20052;-63
2023/10/24 05:45:32;;;;;;;21.13;12.55;;;;;;;12.11;100.00;100338.84;10559679;27;20507;-63
2023/10/24 05:50:54;;;;;;;17.70;11.57;;;;;;;12.14;100.00;100331.75;10564130;27;20047;-64
2023/10/24 05:56:17;;;;;;;18.75;11.27;;;;;;;12.17;100.00;100342.91;10558165;27;20055;-63
2023/10/24 06:01:38;;;;;;;22.75;12.50;;;;;;;12.19;100.00;100333.31;10560521;27;20066;-64
2023/10/24 06:07:01;;;;;;;20.60;12.38;;;;;;;12.20;100.00;100322.88;10551135;27;20515;-63
2023/10/24 06:12:23;;;;;;;19.08;12.23;;;;;;;12.23;100.00;100304.59;10556854;27;20047;-63
2023/10/24 06:17:45;;;;;;;21.90;12.45;;;;;;;12.24;100.00;100316.63;10552876;27;20403;-63
2023/10/24 06:23:07;;;;;;;22.75;13.55;;;;;;;12.25;100.00;100318.31;10551712;27;20129;-63
2023/10/24 06:28:30;;;;;;;23.25;13.10;;;;;;;12.27;100.00;100313.88;10556135;27;20550;-64
2023/10/24 06:33:52;;;;;;;24.85;12.82;;;;;;;12.27;100.00;100326.84;10554611;27;20051;-64
2023/10/24 06:39:14;;;;;;;18.20;12.55;;;;;;;12.29;100.00;100317.25;10547323;28;20100;-64
2023/10/24 06:44:35;;;;;;;21.67;13.55;;;;;;;12.31;100.00;100325.81;10552426;27;20162;-64
2023/10/24 06:49:58;;;;;;;21.60;13.70;;;;;;;12.35;100.00;100314.41;10555127;27;20113;-63
2023/10/24 06:55:20;;;;;;;24.50;14.55;;;;;;;12.37;100.00;100309.13;10556438;28;20067;-63
2023/10/24 07:00:43;;;;;;;25.10;13.90;;;;;;;12.38;100.00;100323.81;10551970;27;20040;-63
2023/10/24 07:06:06;;;;;;;18.33;12.43;;;;;;;12.43;100.00;100299.31;10568237;28;20055;-63
2023/10/24 07:11:28;;;;;;;19.20;11.95;;;;;;;12.45;100.00;100313.06;10562271;28;20125;-63
2023/10/24 07:16:51;;;;;;;20.83;12.95;;;;;;;12.48;100.00;100304.28;10556357;28;20702;-63
2023/10/24 07:22:13;;;;;;;19.20;11.38;;;;;;;12.50;100.00;100324.06;10556891;28;20522;-64
2023/10/24 07:27:35;;;;;;;19.23;11.52;;;;;;;12.52;100.00;100336.97;10566606;28;20561;-63
2023/10/24 07:32:57;;;;;;;15.85;11.55;;;;;;;12.54;100.00;100327.38;10564854;28;20541;-63
2023/10/24 07:38:19;;;;;;;17.60;11.07;;;;;;;12.53;100.00;100308.34;10557412;28;20051;-63
2023/10/24 07:43:42;;;;;;;18.58;10.70;;;;;;;12.55;100.00;100331.63;10563985;27;20563;-63
2023/10/24 07:49:04;;;;;;;19.48;10.07;;;;;;;12.55;100.00;100334.22;10570530;27;20081;-63
2023/10/24 07:54:26;;;;;;;15.93;10.32;;;;;;;12.54;100.00;100324.78;10566711;27;20055;-63
2023/10/24 07:59:48;;;;;;;15.48;9.90;;;;;;;12.58;100.00;100321.13;10570785;27;20047;-63
2023/10/24 08:05:10;;;;;;;14.00;9.70;;;;;;;12.58;100.00;100316.75;10575590;27;20043;-63
2023/10/24 08:10:32;;;;;;;16.10;9.57;;;;;;;12.61;100.00;100298.47;10565991;27;20506;-63
2023/10/24 08:15:58;;;;;;;15.25;9.20;;;;;;;12.63;100.00;100291.47;10571765;27;20039;-64
2023/10/24 08:21:20;;;;;;;15.00;9.30;;;;;;;12.68;100.00;100296.41;10569668;27;20381;-64
2023/10/24 08:26:42;;;;;;;14.50;9.35;;;;;;;12.69;100.00;100304.13;10564232;27;20075;-63
2023/10/24 08:32:20;;;;;;;15.27;9.05;;;;;;;12.70;100.00;100295.44;10567119;27;20416;-64
2023/10/24 08:37:42;;;;;;;15.73;8.63;;;;;;;12.75;100.00;100297.81;10589754;27;20048;-64
2023/10/24 08:43:04;;;;;;;13.70;8.65;;;;;;;12.79;100.00;100289.81;10573228;27;20050;-63
2023/10/24 08:48:26;;;;;;;13.20;9.15;;;;;;;12.80;100.00;100286.28;10556007;27;20047;-63
2023/10/24 08:53:48;;;;;;;15.20;8.63;;;;;;;12.82;100.00;100300.03;10561054;27;20044;-64
2023/10/24 08:59:13;;;;;;;10.25;8.05;;;;;;;12.83;100.00;100291.34;10541756;27;20126;-63
2023/10/24 09:04:35;;;;;;;11.38;8.32;;;;;;;12.87;100.00;100289.44;10566677;27;20571;-63
2023/10/24 09:09:57;;;;;;;13.48;7.78;;;;;;;12.89;100.00;100296.22;10557985;27;20044;-64
2023/10/24 09:15:19;;;;;;;11.07;7.63;;;;;;;12.91;100.00;100299.59;10566440;27;20082;-64
2023/10/24 09:20:43;;;;;;;15.27;8.30;;;;;;;12.90;100.00;100315.25;10564152;27;20055;-63
2023/10/24 09:26:07;;;;;;;12.02;6.78;;;;;;;12.84;100.00;100319.00;10557489;27;20122;-63
2023/10/24 09:31:29;;;;;;;7.30;6.38;;;;;;;12.81;100.00;100318.28;10563540;27;20130;-64
2023/10/24 09:36:52;;;;;;;6.25;4.90;;;;;;;12.74;100.00;100317.75;10561301;27;20054;-63
2023/10/24 09:42:14;;;;;;;11.52;5.13;;;;;;;12.73;100.00;100321.25;10555816;27;20044;-63
2023/10/24 09:47:38;;;;;;;6.00;4.55;;;;;;;12.73;100.00;100339.41;10565545;27;20153;-63
2023/10/24 09:53:05;;;;;;;5.97;4.32;;;;;;;12.63;100.00;100325.19;10544719;27;20044;-63
2023/10/24 09:58:28;;;;;;;4.82;4.15;;;;;;;12.59;100.00;100334.03;10569232;27;20421;-63
2023/10/24 10:03:53;;;;;;;4.60;4.13;;;;;;;12.60;100.00;100319.31;10561578;27;20047;-64
2023/10/24 10:09:18;;;;;;;6.18;4.75;;;;;;;12.61;100.00;100311.44;10561936;27;20048;-64
2023/10/24 10:14:49;;;;;;;10.32;5.00;;;;;;;12.61;100.00;100306.25;10558041;27;20046;-64
2023/10/24 10:20:34;;;;;;;8.40;5.05;;;;;;;12.60;100.00;100283.78;10548939;27;20228;-63
2023/10/24 10:26:15;;;;;;;7.88;4.82;;;;;;;12.69;100.00;100290.31;10560827;27;20044;-63
2023/10/24 10:31:58;;;;;;;6.60;5.40;;;;;;;12.76;100.00;100284.75;10562779;27;20086;-64
2023/10/24 10:37:40;;;;;;;7.38;6.07;;;;;;;12.85;100.00;100284.34;10559959;27;20048;-63
2023/10/24 10:43:03;;;;;;;6.82;5.95;;;;;;;12.93;100.00;100283.94;10562746;27;20052;-63
2023/10/24 10:48:29;;;;;;;10.60;6.43;;;;;;;13.03;100.00;100277.44;10556202;27;20042;-63
2023/10/24 10:54:14;;;;;;;11.38;6.60;;;;;;;13.11;100.00;100281.31;10548922;27;20168;-63
2023/10/24 10:59:42;;;;;;;6.88;5.90;;;;;;;13.20;100.00;100287.84;10568147;27;20040;-64
2023/10/24 11:05:35;;;;;;;7.40;5.90;;;;;;;13.32;100.00;100279.44;10560152;28;20128;-63
2023/10/24 11:11:00;;;;;;;7.95;5.53;;;;;;;13.38;100.00;100273.09;10553670;28;20036;-63
2023/10/24 11:16:22;;;;;;;6.17;4.77;;;;;;;13.35;100.00;100270.66;10556956;28;20048;-64
2023/10/24 11:21:59;;;;;;;7.63;4.85;;;;;;;13.36;100.00;100254.13;10567794;27;20031;-64
2023/10/24 11:27:22;;;;;;;5.65;4.95;;;;;;;13.33;100.00;100251.69;10561408;27;20043;-64
2023/10/24 11:32:44;;;;;;;6.28;4.60;;;;;;;13.31;100.00;100250.91;10567426;27;20039;-63
2023/10/24 11:38:06;;;;;;;7.47;4.85;;;;;;;13.32;100.00;100252.59;10563610;27;20177;-63
2023/10/24 11:43:29;;;;;;;6.38;4.65;;;;;;;13.38;100.00;100252.28;10559815;27;20054;-63
2023/10/24 11:48:51;;;;;;;6.13;4.50;;;;;;;13.39;100.00;100234.00;10566162;27;20047;-63
2023/10/24 11:54:13;;;;;;;7.50;4.38;;;;;;;13.45;100.00;100232.84;10573489;27;20131;-63
2023/10/24 11:59:36;;;;;;;7.53;4.82;;;;;;;13.53;100.00;100220.31;10559478;27;20036;-63
2023/10/24 12:05:01;;;;;;;9.25;5.05;;;;;;;13.58;100.00;100218.31;10568862;27;20060;-63
2023/10/24 12:10:23;;;;;;;10.18;5.53;;;;;;;13.63;100.00;100211.09;10566116;27;20051;-63
2023/10/24 12:15:47;;;;;;;8.18;5.22;;;;;;;13.69;100.00;100208.19;10556797;28;20550;-64
2023/10/24 12:21:10;;;;;;;8.98;5.50;;;;;;;13.79;100.00;100201.59;10560834;28;20407;-64
2023/10/24 12:26:35;;;;;;;6.45;5.43;;;;;;;13.87;100.00;100200.25;10559344;28;20043;-63
2023/10/24 12:31:57;;;;;;;7.82;5.30;;;;;;;13.98;100.00;100189.28;10561255;28;20127;-64
2023/10/24 12:37:19;;;;;;;8.95;5.60;;;;;;;14.07;100.00;100188.78;10560322;28;20048;-63
2023/10/24 12:42:41;;;;;;;5.80;5.20;;;;;;;14.15;100.00;100190.00;10567834;28;20118;-64
2023/10/24 12:48:07;;;;;;;6.88;5.03;;;;;;;14.20;100.00;100181.97;10560957;28;20521;-63
2023/10/24 12:53:29;;;;;;;5.60;4.95;;;;;;;14.20;100.00;100192.38;10565129;28;20443;-63
2023/10/24 12:58:51;;;;;;;8.43;4.75;;;;;;;14.11;100.00;100192.88;10561909;28;20575;-63
2023/10/24 13:04:13;;;;;;;7.20;4.97;;;;;;;14.07;100.00;100188.78;10564474;28;20048;-63
2023/10/24 13:09:37;;;;;;;5.30;4.70;;;;;;;14.02;99.40;100182.97;10561646;28;20036;-63
2023/10/24 13:15:09;;;;;;;6.72;5.10;;;;;;;13.98;100.00;100182.31;10467624;28;21215;-62
2023/10/24 13:20:31;;;;;;;9.40;4.93;;;;;;;13.97;100.00;100174.59;10438030;28;20049;-63
2023/10/24 13:25:53;;;;;;;6.45;4.40;;;;;;;13.96;99.67;100178.09;10432380;28;20055;-62
2023/10/24 13:31:15;;;;;;;7.57;4.57;;;;;;;13.93;100.00;100178.28;10432495;28;20037;-62
2023/10/24 13:36:37;;;;;;;6.65;4.63;;;;;;;13.89;100.00;100177.59;10435890;28;20056;-62
2023/10/24 13:41:59;;;;;;;7.03;4.13;;;;;;;13.90;100.00;100175.81;10428373;28;20041;-62
2023/10/24 13:47:21;;;;;;;5.00;3.72;;;;;;;13.94;99.42;100179.94;10429847;28;20540;-63
2023/10/24 13:52:43;;;;;;;10.00;4.20;;;;;;;13.90;100.00;100178.44;10428017;28;20191;-62
2023/10/24 13:58:05;;;;;;;7.47;4.00;;;;;;;13.86;98.86;100177.75;10430001;28;20045;-63
2023/10/24 14:03:27;;;;;;;9.13;4.18;;;;;;;13.88;100.00;100190.69;10433598;28;20052;-62
2023/10/24 14:08:50;;;;;;;7.45;3.97;;;;;;;13.85;100.00;100186.50;10428771;28;20117;-62
2023/10/24 14:14:12;;;;;;;5.18;4.15;;;;;;;13.82;100.00;100191.03;10432582;28;20033;-62
2023/10/24 14:19:35;;;;;;;7.03;5.07;;;;;;;13.78;100.00;100189.50;10432496;28;20184;-62
2023/10/24 14:24:57;;;;;;;8.65;5.22;;;;;;;13.80;99.83;100185.06;10411517;28;20410;-62
2023/10/24 14:30:20;;;;;;;7.60;5.20;;;;;;;13.80;100.00;100180.72;10404692;28;20481;-62
2023/10/24 14:35:42;;;;;;;12.43;5.70;;;;;;;13.81;100.00;100184.13;10401855;28;20131;-62
2023/10/24 14:41:05;;;;;;;11.30;5.75;;;;;;;13.81;100.00;100194.53;10402775;28;20427;-62
2023/10/24 14:46:27;;;;;;;9.05;5.55;;;;;;;13.85;99.66;100193.44;10399077;28;20053;-62
2023/10/24 14:51:49;;;;;;;5.22;4.63;;;;;;;13.86;99.70;100192.53;10402970;28;20056;-62
2023/10/24 14:57:12;;;;;;;8.13;5.00;;;;;;;13.89;98.49;100189.78;10401727;28;20137;-63
2023/10/24 15:02:34;;;;;;;8.82;5.30;;;;;;;13.91;98.52;100180.13;10402843;28;20130;-61
2023/10/24 15:07:57;;;;;;;8.73;4.90;;;;;;;13.88;99.62;100177.69;10402499;28;20045;-62
2023/10/24 15:13:19;;;;;;;6.40;4.78;;;;;;;13.85;98.87;100180.44;10403860;28;20041;-62
2023/10/24 15:18:41;;;;;;;7.53;5.30;;;;;;;13.79;98.05;100181.63;10395050;28;20414;-62
2023/10/24 15:24:04;;;;;;;6.88;5.00;;;;;;;13.81;99.13;100173.72;10397492;28;20038;-62
2023/10/24 15:29:28;;;;;;;6.43;5.20;;;;;;;13.79;100.00;100170.41;10401768;28;20442;-62
2023/10/24 15:34:50;;;;;;;8.20;5.15;;;;;;;13.78;99.80;100155.69;10402654;28;20099;-61
2023/10/24 15:40:12;;;;;;;12.88;5.40;;;;;;;13.77;99.80;100167.03;10400166;28;20172;-62
2023/10/24 15:45:34;;;;;;;7.45;5.32;;;;;;;13.69;100.00;100158.78;10397373;28;20044;-62
2023/10/24 15:51:02;;;;;;;9.98;5.68;;;;;;;13.66;100.00;100158.97;10399783;28;20041;-62
2023/10/24 15:56:24;;;;;;;8.70;5.90;;;;;;;13.58;100.00;100163.72;10394737;28;20414;-63
2023/10/24 16:01:47;;;;;;;7.65;6.10;;;;;;;13.51;100.00;100154.56;10402498;28;20094;-63
2023/10/24 16:07:09;;;;;;;9.65;6.75;;;;;;;13.46;100.00;100153.97;10402247;28;20073;-63
2023/10/24 16:12:31;;;;;;;10.30;7.20;;;;;;;13.39;100.00;100134.41;10401802;28;20064;-63
2023/10/24 16:17:53;;;;;;;8.77;7.07;;;;;;;13.33;100.00;100134.75;10397740;28;20053;-63
2023/10/24 16:23:15;;;;;;;8.85;7.13;;;;;;;13.30;100.00;100150.47;10400679;28;20052;-63
2023/10/24 16:28:40;;;;;;;14.23;7.43;;;;;;;13.30;100.00;100151.31;10399990;28;20398;-63
2023/10/24 16:34:03;;;;;;;8.15;6.65;;;;;;;13.25;100.00;100155.09;10397544;28;20401;-63
2023/10/24 16:39:25;;;;;;;7.90;6.75;;;;;;;13.20;100.00;100159.69;10401553;28;20115;-63
2023/10/24 16:44:47;;;;;;;9.23;6.60;;;;;;;13.16;100.00;100153.81;10403843;28;20037;-63
2023/10/24 16:50:09;;;;;;;7.80;7.00;;;;;;;13.13;100.00;100137.53;10402128;28;20042;-63
2023/10/24 16:55:35;;;;;;;9.65;6.72;;;;;;;13.13;100.00;100153.13;10400705;28;20046;-63
2023/10/24 17:00:57;;;;;;;9.65;7.00;;;;;;;13.11;100.00;100145.41;10397977;28;20053;-63
2023/10/24 17:06:19;;;;;;;9.23;7.05;;;;;;;13.10;100.00;100152.38;10398846;28;20065;-63
2023/10/24 17:11:41;;;;;;;8.27;6.70;;;;;;;13.07;100.00;100152.50;10401569;28;20052;-63
2023/10/24 17:17:03;;;;;;;11.23;7.47;;;;;;;13.09;100.00;100155.88;10396878;28;20131;-63
2023/10/24 17:22:29;;;;;;;11.43;7.93;;;;;;;13.04;100.00;100163.06;10399738;28;20049;-63
2023/10/24 17:27:51;;;;;;;9.73;8.13;;;;;;;13.01;100.00;100150.22;10397025;28;20050;-63
2023/10/24 17:33:13;;;;;;;12.52;8.10;;;;;;;13.01;100.00;100154.56;10398639;28;20372;-63
2023/10/24 17:38:35;;;;;;;13.85;8.55;;;;;;;13.02;100.00;100146.72;10396204;28;20139;-63
2023/10/24 17:44:00;;;;;;;13.15;8.98;;;;;;;13.02;100.00;100154.50;10395971;28;20148;-63
2023/10/24 17:49:22;;;;;;;12.03;9.07;;;;;;;12.99;100.00;100157.22;10395779;28;20103;-63
2023/10/24 17:54:44;;;;;;;18.05;9.60;;;;;;;12.99;100.00;100153.78;10394814;28;20124;-62
2023/10/24 18:00:07;;;;;;;12.95;8.80;;;;;;;12.95;100.00;100160.91;10404307;28;20060;-63
2023/10/24 18:05:29;;;;;;;10.80;9.55;;;;;;;12.92;100.00;100175.78;10405018;28;20502;-63
2023/10/24 18:10:53;;;;;;;12.38;9.90;;;;;;;12.92;100.00;100166.25;10403341;28;20060;-63
2023/10/24 18:16:17;;;;;;;11.45;9.25;;;;;;;12.88;100.00;100169.91;10404050;28;20046;-63
2023/10/24 18:21:39;;;;;;;10.55;8.75;;;;;;;12.89;100.00;100170.75;10406064;28;20048;-63
2023/10/24 18:27:01;;;;;;;10.65;8.65;;;;;;;12.89;100.00;100161.19;10402674;28;20049;-63
2023/10/24 18:32:23;;;;;;;13.32;7.82;;;;;;;12.84;100.00;100163.19;10404771;28;20128;-63
2023/10/24 18:37:45;;;;;;;9.70;8.05;;;;;;;12.78;100.00;100168.69;10403760;28;20120;-63
2023/10/24 18:43:07;;;;;;;9.90;7.90;;;;;;;12.72;100.00;100168.16;10403320;28;20202;-62
2023/10/24 18:48:30;;;;;;;8.75;7.85;;;;;;;12.62;100.00;100157.38;10396905;28;20050;-63
2023/10/24 18:53:51;;;;;;;7.60;6.90;;;;;;;12.54;100.00;100171.66;10401970;28;20046;-62
2023/10/24 18:59:13;;;;;;;10.20;6.15;;;;;;;12.50;100.00;100183.94;10396085;28;20049;-63
2023/10/24 19:04:36;;;;;;;7.70;5.97;;;;;;;12.46;100.00;100187.59;10403700;28;20132;-62
2023/10/24 19:09:59;;;;;;;6.68;5.97;;;;;;;12.43;100.00;100200.72;10400486;28;20096;-63
2023/10/24 19:15:21;;;;;;;7.50;5.55;;;;;;;12.39;100.00;100190.56;10400856;28;20048;-63
2023/10/24 19:20:44;;;;;;;6.05;5.45;;;;;;;12.34;100.00;100197.72;10404471;28;20626;-62
2023/10/24 19:26:10;;;;;;;6.45;5.40;;;;;;;12.27;100.00;100189.38;10401842;28;20044;-63
2023/10/24 19:31:32;;;;;;;;;;;;;;;12.18;100.00;100197.59;10402029;28;20038;-63
2023/10/24 19:36:54;;;;;;;10.75;5.93;;;;;;;12.09;100.00;100193.69;10404241;28;19928;-63
2023/10/24 19:42:17;;;;;;;5.75;4.95;;;;;;;12.03;100.00;100193.13;10402096;28;20038;-63
2023/10/24 19:47:40;;;;;;;6.97;5.80;;;;;;;11.98;100.00;100192.47;10400704;28;20132;-63
2023/10/24 19:53:02;;;;;;;6.90;5.60;;;;;;;11.96;100.00;100189.97;10402435;28;20103;-63
2023/10/24 19:58:32;;;;;;;10.02;5.97;;;;;;;11.93;100.00;100197.88;10401802;28;20417;-62
2023/10/24 20:03:55;;;;;;;8.02;6.40;;;;;;;11.87;100.00;100184.34;10398901;28;20121;-63
2023/10/24 20:09:18;;;;;;;7.32;6.18;;;;;;;11.85;100.00;100184.41;10404179;28;20172;-63
2023/10/24 20:14:40;;;;;;;11.35;6.65;;;;;;;11.78;100.00;100189.94;10399826;28;20037;-63
2023/10/24 20:20:04;;;;;;;9.65;6.60;;;;;;;11.74;100.00;100191.00;10396984;28;20202;-63
2023/10/24 20:25:26;;;;;;;7.35;6.30;;;;;;;11.65;100.00;100175.84;10400831;28;20135;-62
2023/10/24 20:30:48;;;;;;;7.82;6.22;;;;;;;11.69;100.00;100182.59;10399573;28;20045;-62
2023/10/24 20:36:10;;;;;;;8.57;5.60;;;;;;;11.62;100.00;100186.34;10401342;28;20034;-63
2023/10/24 20:41:32;;;;;;;7.10;5.32;;;;;;;11.56;100.00;100186.59;10394916;28;20049;-63
2023/10/24 20:46:56;;;;;;;7.80;5.40;;;;;;;11.52;100.00;100180.72;10402660;28;20045;-62
2023/10/24 20:52:18;;;;;;;7.18;4.97;;;;;;;11.46;100.00;100185.34;10401390;28;20128;-63
2023/10/24 20:57:41;;;;;;;5.53;4.80;;;;;;;11.44;100.00;100180.22;10404830;28;20120;-63
2023/10/24 21:03:03;;;;;;;5.53;4.20;;;;;;;11.34;100.00;100157.38;10398634;28;20498;-63
2023/10/24 21:08:25;;;;;;;5.35;4.18;;;;;;;11.35;100.00;100165.09;10399952;28;20418;-63
2023/10/24 21:13:48;;;;;;;6.85;4.30;;;;;;;11.35;100.00;100161.66;10394744;28;20131;-63
2023/10/24 21:19:10;;;;;;;9.20;4.90;;;;;;;11.30;100.00;100163.63;10394516;28;20068;-63
2023/10/24 21:24:34;;;;;;;7.00;4.85;;;;;;;11.35;100.00;100152.16;10396722;28;20037;-63
2023/10/24 21:29:56;;;;;;;14.77;5.32;;;;;;;11.32;100.00;100166.97;10400452;28;20410;-63
2023/10/24 21:35:18;;;;;;;7.13;5.55;;;;;;;11.28;100.00;100150.72;10407674;28;20041;-63
2023/10/24 21:40:50;;;;;;;8.30;6.13;;;;;;;11.29;100.00;100149.81;10406643;28;20388;-63
2023/10/24 21:46:12;;;;;;;11.15;6.72;;;;;;;11.23;100.00;100157.00;10406305;28;20103;-63
2023/10/24 21:51:35;;;;;;;10.35;7.18;;;;;;;11.24;100.00;100158.69;10407969;28;20049;-62
2023/10/24 21:56:57;;;;;;;11.30;7.25;;;;;;;11.25;100.00;100157.78;10404914;28;20042;-63
2023/10/24 22:02:18;;;;;;;9.75;8.00;;;;;;;11.20;100.00;100150.22;10407278;28;20489;-63
2023/10/24 22:07:41;;;;;;;10.32;8.38;;;;;;;11.18;100.00;100148.59;10406718;28;20049;-62
2023/10/24 22:13:03;;;;;;;13.63;9.10;;;;;;;11.18;100.00;100143.41;10403071;28;20107;-62
2023/10/24 22:18:25;;;;;;;13.02;9.20;;;;;;;11.13;100.00;100141.84;10403059;28;20053;-63
2023/10/24 22:23:47;;;;;;;14.60;9.43;;;;;;;11.10;100.00;100142.00;10404528;28;20045;-63
2023/10/24 22:29:11;;;;;;;14.20;10.13;;;;;;;11.06;100.00;100149.97;10400779;28;20045;-63
2023/10/24 22:34:33;;;;;;;16.77;9.65;;;;;;;11.05;100.00;100146.53;10402693;28;20041;-63
2023/10/24 22:39:55;;;;;;;17.92;10.55;;;;;;;11.05;100.00;100143.09;10402491;28;20525;-63
2023/10/24 22:45:17;;;;;;;14.32;10.90;;;;;;;11.07;100.00;100155.09;10403567;28;20046;-63
2023/10/24 22:50:39;;;;;;;15.18;11.10;;;;;;;11.02;100.00;100154.41;10399532;28;20593;-63
2023/10/24 22:56:01;;;;;;;17.98;10.70;;;;;;;11.07;100.00;100151.66;10397717;28;20029;-62
2023/10/24 23:01:23;;;;;;;18.15;11.13;;;;;;;11.02;100.00;100148.44;10403668;28;20046;-63
2023/10/24 23:06:45;;;;;;;20.23;11.10;;;;;;;11.00;100.00;100145.91;10402147;28;20041;-63
2023/10/24 23:12:07;;;;;;;13.80;11.25;;;;;;;10.98;100.00;100149.47;10400114;28;20049;-62
2023/10/24 23:17:30;;;;;;;18.77;11.65;;;;;;;10.99;100.00;100157.16;10400612;28;20053;-62
2023/10/24 23:22:52;;;;;;;19.75;12.60;;;;;;;10.98;100.00;100152.03;10395618;28;20072;-63
2023/10/24 23:28:14;;;;;;;18.27;11.40;;;;;;;10.97;100.00;100158.97;10403656;28;20051;-62
2023/10/24 23:33:36;;;;;;;17.25;12.10;;;;;;;10.92;100.00;100153.16;10400889;28;20053;-63
2023/10/24 23:38:58;;;;;;;15.95;11.90;;;;;;;10.91;100.00;100151.44;10400003;28;20041;-63
2023/10/24 23:44:20;;;;;;;18.30;11.90;;;;;;;10.92;100.00;100158.31;10401732;28;20033;-63
2023/10/24 23:49:42;;;;;;;20.67;12.10;;;;;;;10.90;100.00;100154.97;10404270;28;20052;-63
2023/10/24 23:55:05;;;;;;;20.00;13.20;;;;;;;10.88;100.00;100156.75;10394799;28;20115;-63
